VK1ET-13 Weather Reports


time (UTC)temp
F
wind
direction
speed
knots
gust
knots
rain 1hr
in
rain 24hr
in
rain mn
in
humidity
%
barometer
mb
20201025134024 48 0.0 3.5 0.05 0.24 0.03 94 1018.9
20201025132028 48 0.0 7.0 0.04 0.23 0.02 94 1019.0
20201025131019 48 0.0 4.3 0.04 0.22 0.01 93 1019.1
20201025124036 48 0.0 4.3 0.05 0.20 0.20 93 1018.9
20201025123033 48 0.0 7.8 0.06 0.20 0.20 93 1018.8
20201025121026 49 135 0.9 9.6 0.06 0.19 0.18 92 1018.8
20201025115029 50 135 0.9 9.6 0.06 0.17 0.16 94 1018.9
20201025113020 50 0.0 3.5 0.06 0.15 0.14 95 1018.7
20201025112022 50 0.0 0.0 0.05 0.15 0.13 94 1018.7
20201025111034 50 0.0 1.7 0.03 0.14 0.12 94 1018.5
20201025110027 50 0.0 0.0 0.02 0.13 0.10 94 1018.5
20201025100023 50 0.0 2.6 0.01 0.11 0.09 93 1017.7
20201025095029 50 0.0 4.3 0.01 0.11 0.09 93 1017.5
20201025094019 50 0.0 5.2 0.01 0.11 0.09 92 1017.4
20201025093032 50 0.0 4.3 0.01 0.11 0.09 92 1017.3
20201025092020 50 0.0 3.5 0.01 0.12 0.09 91 1017.2
20201025091021 50 0.0 5.2 0.01 0.13 0.09 90 1017.0
20201025085020 51 180 0.9 3.5 0.00 0.13 0.08 87 1016.9
20201025081021 52 180 0.9 6.1 0.00 0.15 0.08 82 1016.5
20201025080027 52 180 0.9 7.8 0.00 0.21 0.08 80 1016.2
20201025074019 53 180 0.9 9.6 0.00 0.26 0.08 79 1015.7
20201025062024 54 203 1.7 10.4 0.00 0.27 0.08 74 1015.1
20201025060034 54 180 0.9 7.8 0.00 0.27 0.08 76 1014.8
20201025054024 55 158 1.7 10.4 0.00 0.27 0.08 74 1014.7
20201025051027 55 158 1.7 11.3 0.00 0.28 0.08 73 1014.6
20201025045027 56 180 1.7 12.2 0.00 0.28 0.08 73 1014.2
20201025042026 56 158 0.9 12.2 0.00 0.28 0.08 69 1014.1
20201025035023 58 0.0 3.5 0.00 0.28 0.08 71 1014.2
20201025034024 58 0.0 4.3 0.00 0.28 0.08 73 1014.3
20201025031025 56 0.0 7.0 0.00 0.28 0.08 73 1014.1
20201025025019 56 158 0.9 10.4 0.00 0.28 0.08 72 1014.1
20201025024023 56 158 0.9 8.7 0.00 0.28 0.08 74 1014.2
20201025022036 55 158 1.7 13.0 0.00 0.28 0.08 74 1014.0
20201025020037 55 158 0.9 10.4 0.00 0.28 0.08 77 1014.0
20201025015027 54 158 1.7 8.7 0.00 0.28 0.08 74 1014.0
20201025014030 54 158 0.9 9.6 0.00 0.28 0.08 75 1013.8
20201025013033 53 158 1.7 10.4 0.00 0.28 0.08 74 1013.9
20201025012020 53 158 1.7 9.6 0.00 0.28 0.08 76 1014.0
20201025010030 52 158 0.9 10.4 0.00 0.28 0.08 78 1014.0
20201025005026 51 180 0.9 9.6 0.00 0.28 0.08 77 1013.9
20201025004023 51 158 1.7 10.4 0.00 0.28 0.08 78 1014.0
20201025001019 50 158 1.7 8.7 0.00 0.28 0.08 79 1014.0
20201024235021 49 158 1.7 10.4 0.00 0.28 0.08 80 1013.8
20201024234029 49 158 1.7 8.7 0.00 0.30 0.08 81 1013.9
20201024232025 48 158 0.9 10.4 0.00 0.39 0.08 83 1013.8
20201024231023 47 158 1.7 9.6 0.00 0.43 0.08 84 1013.6
20201024230032 47 158 1.7 11.3 0.01 0.43 0.08 87 1013.6
20201024225021 47 158 3.5 13.9 0.01 0.43 0.08 84 1013.4
20201024222022 46 158 2.6 13.0 0.01 0.43 0.08 87 1013.2
20201024221020 45 158 1.7 8.7 0.01 0.46 0.08 90 1013.0
20201024220025 45 180 2.6 10.4 0.00 0.46 0.07 89 1012.9
20201024215022 45 158 2.6 10.4 0.00 0.47 0.07 88 1012.8
20201024214022 45 158 3.5 11.3 0.00 0.47 0.07 86 1012.8
20201024213023 45 158 1.7 12.2 0.00 0.48 0.07 85 1012.5
20201024211020 45 158 1.7 10.4 0.00 0.50 0.07 85 1012.1
20201024210023 44 158 3.5 12.2 0.00 0.50 0.07 85 1011.7
20201024204020 44 158 4.3 14.8 0.00 0.50 0.07 86 1011.5
20201024203019 44 158 2.6 11.3 0.00 0.50 0.07 89 1011.3
20201024202024 44 158 1.7 9.6 0.01 0.50 0.07 90 1011.2
20201024200033 44 158 1.7 11.3 0.02 0.50 0.07 91 1010.8
20201024193045 45 158 1.7 10.4 0.02 0.50 0.07 94 1010.4
20201024191028 46 0.0 5.2 0.02 0.49 0.06 94 1009.9
20201024182020 47 0.0 8.7 0.02 0.49 0.04 95 1008.8
20201024181027 47 0.0 7.0 0.02 0.50 0.04 95 1008.8
20201024175022 47 0.0 7.0 0.02 0.57 0.03 94 1008.6
20201024173040 47 0.0 4.3 0.02 0.59 0.02 94 1008.4
20201024171024 47 0.0 7.0 0.02 0.60 0.02 94 1008.0
20201024170025 47 0.0 1.7 0.02 0.60 0.02 94 1008.0
20201024163026 48 0.0 2.6 0.01 0.58 0.01 93 1007.8
20201024162032 48 0.0 7.8 0.01 0.58 0.01 92 1007.7
20201024161021 48 0.0 1.7 0.01 0.58 0.01 91 1007.6
20201024160023 49 0.0 0.9 0.01 0.58 0.01 91 1007.7
20201024155019 49 0.0 1.7 0.00 0.57 0.00 91 1007.7
20201024154023 49 0.0 0.0 0.00 0.58 0.00 90 1007.7
20201024151028 49 0.0 7.0 0.00 0.61 0.00 88 1007.3
20201024150024 49 0.0 7.8 0.00 0.61 0.00 87 1007.3
20201024145026 49 0.0 4.3 0.00 0.61 0.00 88 1007.5
20201024144039 49 0.0 0.9 0.00 0.61 0.00 89 1007.5
20201024141019 50 0.0 7.8 0.00 0.62 0.00 88 1007.2
20201024135020 50 0.0 7.0 0.00 0.63 0.00 90 1007.2